createdAt,value
2018-10-16T00:01:49.999Z,7.60
2018-10-16T00:04:18.075Z,7.50
2018-10-16T00:06:46.161Z,7.50
2018-10-16T00:09:14.236Z,7.40
2018-10-16T00:11:53.735Z,7.40
2018-10-16T00:14:21.811Z,7.30
2018-10-16T00:16:50.158Z,7.30
2018-10-16T00:19:18.238Z,7.30
2018-10-16T00:21:46.329Z,7.20
2018-10-16T00:24:14.402Z,7.20
2018-10-16T00:26:42.502Z,7.20
2018-10-16T00:29:10.582Z,7.10
2018-10-16T00:31:38.659Z,7.10
2018-10-16T00:34:07.247Z,7.10
2018-10-16T00:36:36.282Z,7.10
2018-10-16T00:39:05.618Z,7.10
2018-10-16T00:41:33.710Z,7.10
2018-10-16T00:44:01.786Z,7.10
2018-10-16T00:46:29.848Z,7.10
2018-10-16T00:48:57.979Z,7.10
2018-10-16T00:51:26.095Z,7.10
2018-10-16T00:53:54.186Z,7.10
2018-10-16T00:56:22.534Z,7.20
2018-10-16T00:58:50.694Z,7.20
2018-10-16T01:01:24.330Z,7.30
2018-10-16T01:03:52.470Z,7.30
2018-10-16T01:06:20.579Z,7.30
2018-10-16T01:08:48.731Z,7.20
2018-10-16T01:11:16.850Z,7.10
2018-10-16T01:13:45.226Z,7.10
2018-10-16T01:16:13.338Z,7.10
2018-10-16T01:18:41.742Z,7.10
2018-10-16T01:21:09.843Z,7.10
2018-10-16T01:23:37.995Z,7.10
2018-10-16T01:26:06.502Z,7.10
2018-10-16T01:28:34.604Z,7.00
2018-10-16T01:31:02.704Z,7.00
2018-10-16T01:33:30.811Z,7.00
2018-10-16T01:35:58.910Z,7.00
2018-10-16T01:38:27.030Z,6.90
2018-10-16T01:40:55.146Z,6.80
2018-10-16T01:43:23.274Z,6.80
2018-10-16T01:45:51.368Z,6.80
2018-10-16T01:48:19.479Z,6.80
2018-10-16T01:50:47.582Z,6.70
2018-10-16T01:53:15.674Z,6.70
2018-10-16T01:55:43.793Z,6.80
2018-10-16T01:58:11.891Z,6.70
2018-10-16T02:00:39.990Z,6.70
2018-10-16T02:03:08.451Z,6.70
2018-10-16T02:05:36.747Z,6.80
2018-10-16T02:08:05.246Z,6.80
2018-10-16T02:10:33.359Z,6.80
2018-10-16T02:13:01.654Z,6.70
2018-10-16T02:15:29.783Z,6.80
2018-10-16T02:17:57.914Z,6.90
2018-10-16T02:20:26.014Z,7.00
2018-10-16T02:22:54.102Z,7.10
2018-10-16T02:25:22.234Z,7.10
2018-10-16T02:27:50.313Z,7.20
2018-10-16T02:30:18.422Z,7.30
2018-10-16T02:32:46.549Z,7.30
2018-10-16T02:35:14.643Z,7.30
2018-10-16T02:37:42.747Z,7.40
2018-10-16T02:40:11.191Z,7.50
2018-10-16T02:42:40.064Z,7.70
2018-10-16T02:45:09.293Z,7.70
2018-10-16T02:47:37.478Z,7.60
2018-10-16T02:50:05.854Z,7.60
2018-10-16T02:52:33.966Z,7.50
2018-10-16T02:55:02.082Z,7.50
2018-10-16T02:57:30.174Z,7.40
2018-10-16T02:59:58.324Z,7.40
2018-10-16T03:02:26.455Z,7.40
2018-10-16T03:04:54.554Z,7.50
2018-10-16T03:07:22.686Z,7.50
2018-10-16T03:09:50.825Z,7.40
2018-10-16T03:12:18.945Z,7.40
2018-10-16T03:14:47.075Z,7.30
2018-10-16T03:17:15.194Z,7.30
2018-10-16T03:19:43.299Z,7.20
2018-10-16T03:22:11.407Z,7.20
2018-10-16T03:24:39.512Z,7.20
2018-10-16T03:27:07.807Z,7.20
2018-10-16T03:29:35.971Z,7.20
2018-10-16T03:32:04.717Z,7.20
2018-10-16T03:34:32.851Z,7.10
2018-10-16T03:37:00.971Z,7.10
2018-10-16T03:39:29.066Z,7.20
2018-10-16T03:41:57.166Z,7.30
2018-10-16T03:44:25.282Z,7.40
2018-10-16T03:46:53.406Z,7.50
2018-10-16T03:49:21.547Z,7.50
2018-10-16T03:51:49.702Z,7.50
2018-10-16T03:54:17.877Z,7.40
2018-10-16T03:56:46.113Z,7.40
2018-10-16T03:59:14.350Z,7.40
2018-10-16T04:01:42.490Z,7.40
2018-10-16T04:04:10.622Z,7.30
2018-10-16T04:06:38.903Z,7.30
2018-10-16T04:09:07.090Z,7.20
2018-10-16T04:11:35.301Z,7.20
2018-10-16T04:14:03.668Z,7.20
2018-10-16T04:16:31.693Z,7.30
2018-10-16T04:18:59.846Z,7.30
2018-10-16T04:21:33.394Z,7.30
2018-10-16T04:24:01.775Z,7.20
2018-10-16T04:26:30.334Z,7.20
2018-10-16T04:28:58.556Z,7.20
2018-10-16T04:31:26.656Z,7.20
2018-10-16T04:33:54.821Z,7.20
2018-10-16T04:36:22.927Z,7.20
2018-10-16T04:38:51.007Z,7.20
2018-10-16T04:41:19.098Z,7.20
2018-10-16T04:43:47.270Z,7.40
2018-10-16T04:46:15.430Z,7.60
2018-10-16T04:48:43.518Z,7.70
2018-10-16T04:51:11.635Z,7.80
2018-10-16T04:53:39.722Z,7.90
2018-10-16T04:56:07.878Z,7.90
2018-10-16T04:58:36.455Z,8.00
2018-10-16T05:01:04.570Z,8.00
2018-10-16T05:03:32.668Z,8.00
2018-10-16T05:06:00.826Z,8.00
2018-10-16T05:08:28.968Z,7.90
2018-10-16T05:10:57.075Z,7.90
2018-10-16T05:13:25.203Z,8.00
2018-10-16T05:15:53.318Z,8.10
2018-10-16T05:18:21.426Z,8.20
2018-10-16T05:20:49.544Z,8.40
2018-10-16T05:23:17.627Z,8.40
2018-10-16T05:25:45.758Z,8.30
2018-10-16T05:28:13.939Z,8.10
2018-10-16T05:30:42.035Z,7.90
2018-10-16T05:33:10.126Z,7.90
2018-10-16T05:35:38.215Z,8.00
2018-10-16T05:38:06.290Z,8.10
2018-10-16T05:40:34.388Z,8.10
2018-10-16T05:43:02.474Z,8.10
2018-10-16T05:45:33.078Z,8.20
2018-10-16T05:48:01.173Z,8.20
2018-10-16T05:50:29.297Z,8.20
2018-10-16T05:52:57.394Z,8.30
2018-10-16T05:55:25.530Z,8.20
2018-10-16T05:57:53.642Z,8.20
2018-10-16T06:00:42.321Z,8.20
2018-10-16T06:03:10.522Z,8.20
2018-10-16T06:05:38.730Z,8.10
2018-10-16T06:08:06.831Z,8.00
2018-10-16T06:10:35.230Z,8.00
2018-10-16T06:13:03.448Z,8.00
2018-10-16T06:15:31.584Z,8.00
2018-10-16T06:17:59.695Z,8.00
2018-10-16T06:20:27.794Z,8.00
2018-10-16T06:22:55.955Z,8.00
2018-10-16T06:25:24.073Z,8.10
2018-10-16T06:27:52.166Z,8.10
2018-10-16T06:30:20.346Z,8.10
2018-10-16T06:32:48.337Z,8.10
2018-10-16T06:35:16.419Z,8.20
2018-10-16T06:37:44.561Z,8.20
2018-10-16T06:40:12.658Z,8.20
2018-10-16T06:42:40.844Z,8.30
2018-10-16T06:45:10.026Z,8.30
2018-10-16T06:47:38.181Z,8.30
2018-10-16T06:50:07.768Z,8.40
2018-10-16T06:52:35.850Z,8.50
2018-10-16T06:55:04.118Z,8.50
2018-10-16T06:57:32.168Z,8.60
2018-10-16T07:00:00.327Z,8.60
2018-10-16T07:02:28.366Z,8.60
2018-10-16T07:05:03.071Z,8.60
2018-10-16T07:07:31.158Z,8.70
2018-10-16T07:09:59.241Z,8.80
2018-10-16T07:12:27.330Z,8.90
2018-10-16T07:14:55.453Z,9.00
2018-10-16T07:17:23.506Z,9.00
2018-10-16T07:19:51.584Z,9.10
2018-10-16T07:22:19.909Z,9.20
2018-10-16T07:24:48.086Z,9.30
2018-10-16T07:27:16.183Z,9.40
2018-10-16T07:29:44.290Z,9.50
2018-10-16T07:32:12.427Z,9.60
2018-10-16T07:34:40.528Z,9.80
2018-10-16T07:37:08.622Z,9.90
2018-10-16T07:39:36.750Z,10.10
2018-10-16T07:42:04.991Z,10.20
2018-10-16T07:44:33.110Z,10.30
2018-10-16T07:47:01.232Z,10.50
2018-10-16T07:49:29.341Z,10.60
2018-10-16T07:51:57.460Z,10.70
2018-10-16T07:54:25.594Z,10.80
2018-10-16T07:57:00.418Z,11.00
2018-10-16T07:59:28.511Z,11.20
2018-10-16T08:01:56.633Z,11.40
2018-10-16T08:04:24.751Z,11.60
2018-10-16T08:06:52.970Z,11.70
2018-10-16T08:09:21.171Z,11.80
2018-10-16T08:11:50.222Z,11.80
2018-10-16T08:14:19.334Z,11.90
2018-10-16T08:16:48.650Z,12.00
2018-10-16T08:19:16.777Z,12.00
2018-10-16T08:21:45.814Z,12.10
2018-10-16T08:24:13.933Z,12.20
2018-10-16T08:26:42.081Z,12.20
2018-10-16T08:29:10.235Z,12.20
2018-10-16T08:31:38.686Z,12.30
2018-10-16T08:34:07.136Z,12.40
2018-10-16T08:36:35.522Z,12.50
2018-10-16T08:39:14.479Z,12.60
2018-10-16T08:43:57.258Z,12.60
2018-10-16T08:46:36.770Z,12.70
2018-10-16T08:49:16.434Z,12.90
2018-10-16T08:51:50.820Z,12.90
2018-10-16T08:54:19.035Z,13.00
2018-10-16T08:56:47.177Z,13.10
2018-10-16T08:59:15.293Z,13.30
2018-10-16T09:01:43.406Z,13.30
2018-10-16T09:04:11.523Z,13.40
2018-10-16T09:06:39.729Z,13.50
2018-10-16T09:09:09.502Z,13.60
2018-10-16T09:11:37.614Z,13.80
2018-10-16T09:14:06.068Z,13.90
2018-10-16T09:16:34.099Z,14.10
2018-10-16T09:19:02.182Z,14.30
2018-10-16T09:21:30.285Z,14.50
2018-10-16T09:23:58.358Z,14.60
2018-10-16T09:26:26.447Z,14.80
2018-10-16T09:28:54.538Z,15.00
2018-10-16T09:31:22.621Z,15.30
2018-10-16T09:33:50.700Z,15.50
2018-10-16T09:36:18.863Z,15.70
2018-10-16T09:38:46.947Z,15.90
2018-10-16T09:41:15.044Z,16.00
2018-10-16T09:43:43.191Z,16.20
2018-10-16T09:46:11.275Z,16.40
2018-10-16T09:48:39.359Z,16.60
2018-10-16T09:51:07.462Z,16.70
2018-10-16T09:53:35.551Z,16.70
2018-10-16T09:56:03.630Z,16.70
2018-10-16T09:58:31.967Z,16.70
2018-10-16T10:01:05.607Z,16.70
2018-10-16T10:03:33.706Z,16.70
2018-10-16T10:06:01.782Z,16.80
2018-10-16T10:08:29.886Z,17.10
2018-10-16T10:10:58.068Z,17.30
2018-10-16T10:13:26.091Z,17.50
2018-10-16T10:15:54.203Z,17.70
2018-10-16T10:18:22.327Z,18.10
2018-10-16T10:20:50.426Z,18.30
2018-10-16T10:23:18.591Z,18.60
2018-10-16T10:25:46.647Z,18.70
2018-10-16T10:28:14.740Z,18.90
2018-10-16T10:30:42.852Z,19.10
2018-10-16T10:33:10.950Z,19.40
2018-10-16T10:35:39.106Z,19.80
2018-10-16T10:38:07.166Z,20.00
2018-10-16T10:40:35.275Z,20.20
2018-10-16T10:43:03.367Z,20.50
2018-10-16T10:45:31.486Z,20.70
2018-10-16T10:47:59.624Z,20.80
2018-10-16T10:50:27.818Z,20.90
2018-10-16T10:52:55.826Z,21.00
2018-10-16T10:55:23.946Z,21.10
2018-10-16T10:57:52.038Z,21.40
2018-10-16T11:00:20.154Z,21.50
2018-10-16T11:02:48.974Z,21.40
2018-10-16T11:05:17.068Z,21.40
2018-10-16T11:07:45.174Z,21.30
2018-10-16T11:10:14.087Z,21.20
2018-10-16T11:12:43.234Z,21.20
2018-10-16T11:15:11.420Z,21.20
2018-10-16T11:17:39.877Z,21.20
2018-10-16T11:20:09.551Z,21.30
2018-10-16T11:22:37.678Z,21.50
2018-10-16T11:25:06.775Z,21.70
2018-10-16T11:27:34.983Z,21.90
2018-10-16T11:30:03.114Z,21.90
2018-10-16T11:32:31.185Z,21.90
2018-10-16T11:34:59.274Z,21.80
2018-10-16T11:37:27.394Z,21.70
2018-10-16T11:39:55.490Z,21.70
2018-10-16T11:42:23.578Z,21.80
2018-10-16T11:44:51.705Z,21.90
2018-10-16T11:47:19.783Z,22.00
2018-10-16T11:49:47.882Z,22.10
2018-10-16T11:52:16.131Z,22.30
2018-10-16T11:54:44.219Z,22.50
2018-10-16T11:57:12.311Z,22.60
2018-10-16T11:59:40.440Z,22.60
2018-10-16T12:02:08.546Z,22.80
2018-10-16T12:04:36.602Z,22.90
2018-10-16T12:07:04.719Z,23.20
2018-10-16T12:09:32.776Z,23.20
2018-10-16T12:12:00.859Z,23.40
2018-10-16T12:14:28.951Z,23.60
2018-10-16T12:17:02.183Z,23.60
2018-10-16T12:19:48.091Z,23.60
2018-10-16T12:22:16.139Z,23.70
2018-10-16T12:24:44.278Z,23.60
2018-10-16T12:27:12.466Z,23.70
2018-10-16T12:29:40.548Z,23.70
2018-10-16T12:32:08.655Z,23.80
2018-10-16T12:34:36.768Z,23.90
2018-10-16T12:37:05.362Z,24.00
2018-10-16T12:39:33.534Z,23.70
2018-10-16T12:42:01.607Z,23.70
2018-10-16T12:44:29.663Z,23.80
2018-10-16T12:46:57.854Z,23.80
2018-10-16T12:49:25.974Z,23.90
2018-10-16T12:51:54.083Z,24.00
2018-10-16T12:54:22.205Z,24.20
2018-10-16T12:56:50.379Z,24.40
2018-10-16T12:59:18.408Z,24.60
2018-10-16T13:01:46.531Z,24.70
2018-10-16T13:04:14.638Z,24.80
2018-10-16T13:06:44.695Z,24.80
2018-10-16T13:09:13.162Z,24.80
2018-10-16T13:11:41.990Z,24.70
2018-10-16T13:14:10.163Z,24.40
2018-10-16T13:16:38.551Z,24.40
2018-10-16T13:19:06.670Z,24.40
2018-10-16T13:21:35.069Z,24.30
2018-10-16T13:24:03.302Z,24.10
2018-10-16T13:26:31.343Z,24.20
2018-10-16T13:28:59.475Z,24.20
2018-10-16T13:31:27.583Z,24.40
2018-10-16T13:33:55.736Z,24.60
2018-10-16T13:36:23.827Z,24.70
2018-10-16T13:38:51.992Z,24.80
2018-10-16T13:41:20.090Z,24.70
2018-10-16T13:43:48.190Z,24.50
2018-10-16T13:46:16.338Z,24.60
2018-10-16T13:48:44.382Z,24.60
2018-10-16T13:51:12.507Z,24.60
2018-10-16T13:53:40.695Z,24.50
2018-10-16T13:56:09.162Z,24.50
2018-10-16T13:58:37.162Z,24.60
2018-10-16T14:01:05.295Z,24.40
2018-10-16T14:03:33.398Z,24.30
2018-10-16T14:06:01.589Z,24.40
2018-10-16T14:08:29.659Z,24.30
2018-10-16T14:10:57.858Z,24.30
2018-10-16T14:13:25.991Z,24.20
2018-10-16T14:15:54.492Z,24.10
2018-10-16T14:18:22.528Z,24.10
2018-10-16T14:20:50.608Z,24.00
2018-10-16T14:23:18.733Z,24.00
2018-10-16T14:25:46.819Z,23.80
2018-10-16T14:28:14.970Z,23.80
2018-10-16T14:30:43.087Z,23.80
2018-10-16T14:33:11.578Z,23.80
2018-10-16T14:35:39.750Z,23.70
2018-10-16T14:38:07.907Z,23.60
2018-10-16T14:40:36.007Z,23.60
2018-10-16T14:43:04.148Z,23.60
2018-10-16T14:45:32.240Z,23.50
2018-10-16T14:48:00.435Z,23.50
2018-10-16T14:50:28.470Z,23.50
2018-10-16T14:52:56.574Z,23.40
2018-10-16T14:55:24.657Z,23.30
2018-10-16T14:57:52.749Z,23.20
2018-10-16T15:00:20.883Z,23.10
2018-10-16T15:02:48.962Z,22.90
2018-10-16T15:05:17.058Z,22.90
2018-10-16T15:07:45.149Z,22.80
2018-10-16T15:10:13.291Z,22.70
2018-10-16T15:12:41.321Z,22.60
2018-10-16T15:15:09.608Z,22.50
2018-10-16T15:17:37.679Z,22.40
2018-10-16T15:20:08.429Z,22.30
2018-10-16T15:22:36.459Z,22.30
2018-10-16T15:25:05.634Z,22.20
2018-10-16T15:27:33.863Z,22.10
2018-10-16T15:30:01.957Z,22.00
2018-10-16T15:32:30.032Z,22.00
2018-10-16T15:34:58.164Z,21.90
2018-10-16T15:37:26.254Z,21.80
2018-10-16T15:39:54.389Z,21.70
2018-10-16T15:42:22.682Z,21.70
2018-10-16T15:44:50.799Z,21.60
2018-10-16T15:47:18.949Z,21.60
2018-10-16T15:49:47.028Z,21.60
2018-10-16T15:52:15.258Z,21.50
2018-10-16T15:54:43.255Z,21.50
2018-10-16T15:57:11.502Z,21.40
2018-10-16T15:59:39.748Z,21.30
2018-10-16T16:02:07.905Z,21.30
2018-10-16T16:04:35.956Z,21.10
2018-10-16T16:07:04.055Z,20.80
2018-10-16T16:09:32.210Z,20.70
2018-10-16T16:12:00.460Z,20.40
2018-10-16T16:14:28.510Z,20.40
2018-10-16T16:16:56.780Z,20.30
2018-10-16T16:19:24.911Z,20.20
2018-10-16T16:21:53.022Z,20.10
2018-10-16T16:24:21.112Z,20.00
2018-10-16T16:26:49.227Z,19.90
2018-10-16T16:29:17.358Z,19.70
2018-10-16T16:31:45.479Z,19.50
2018-10-16T16:34:13.591Z,19.10
2018-10-16T16:36:41.759Z,18.70
2018-10-16T16:39:12.028Z,18.40
2018-10-16T16:41:40.122Z,18.10
2018-10-16T16:44:08.318Z,17.90
2018-10-16T16:46:36.451Z,17.70
2018-10-16T16:49:04.791Z,17.50
2018-10-16T16:51:32.937Z,17.40
2018-10-16T16:54:01.100Z,17.10
2018-10-16T16:56:29.219Z,16.90
2018-10-16T16:58:57.418Z,16.70
2018-10-16T17:01:25.813Z,16.60
2018-10-16T17:03:53.932Z,16.40
2018-10-16T17:06:22.027Z,16.20
2018-10-16T17:08:50.202Z,16.00
2018-10-16T17:11:18.388Z,15.80
2018-10-16T17:13:46.495Z,15.70
2018-10-16T17:16:14.636Z,15.70
2018-10-16T17:18:42.744Z,15.60
2018-10-16T17:21:10.847Z,15.60
2018-10-16T17:23:39.272Z,15.60
2018-10-16T17:26:08.009Z,15.50
2018-10-16T17:28:36.003Z,15.50
2018-10-16T17:31:04.240Z,15.40
2018-10-16T17:33:32.407Z,15.30
2018-10-16T17:36:00.562Z,15.30
2018-10-16T17:38:28.689Z,15.10
2018-10-16T17:40:56.801Z,15.00
2018-10-16T17:43:24.911Z,14.80
2018-10-16T17:45:53.046Z,14.70
2018-10-16T17:48:21.148Z,14.70
2018-10-16T17:50:49.251Z,14.60
2018-10-16T17:53:17.358Z,14.40
2018-10-16T17:55:45.470Z,14.30
2018-10-16T17:58:13.587Z,14.30
2018-10-16T18:00:41.704Z,14.20
2018-10-16T18:03:09.988Z,14.00
2018-10-16T18:05:37.972Z,14.00
2018-10-16T18:08:06.095Z,13.90
2018-10-16T18:10:34.218Z,13.90
2018-10-16T18:13:02.516Z,13.80
2018-10-16T18:15:30.710Z,13.80
2018-10-16T18:17:58.884Z,13.70
2018-10-16T18:20:26.979Z,13.60
2018-10-16T18:22:55.078Z,13.50
2018-10-16T18:25:23.286Z,13.50
2018-10-16T18:27:51.391Z,13.40
2018-10-16T18:30:19.518Z,13.40
2018-10-16T18:32:47.683Z,13.30
2018-10-16T18:35:15.802Z,13.20
2018-10-16T18:37:44.126Z,13.30
2018-10-16T18:40:12.810Z,13.20
2018-10-16T18:42:41.287Z,13.20
2018-10-16T18:45:10.623Z,13.10
2018-10-16T18:47:38.757Z,13.10
2018-10-16T18:50:07.810Z,13.10
2018-10-16T18:52:35.904Z,13.10
2018-10-16T18:55:04.637Z,13.20
2018-10-16T18:57:32.738Z,13.10
2018-10-16T19:00:00.862Z,13.20
2018-10-16T19:02:29.291Z,13.10
2018-10-16T19:04:57.472Z,13.10
2018-10-16T19:07:25.602Z,13.20
2018-10-16T19:09:53.695Z,13.20
2018-10-16T19:12:21.795Z,13.20
2018-10-16T19:14:49.882Z,13.30
2018-10-16T19:17:17.971Z,13.30
2018-10-16T19:19:46.858Z,13.30
2018-10-16T19:22:14.947Z,13.30
2018-10-16T19:24:43.030Z,13.30
2018-10-16T19:27:11.305Z,13.30
2018-10-16T19:29:39.410Z,13.30
2018-10-16T19:32:07.591Z,13.20
2018-10-16T19:34:35.702Z,13.20
2018-10-16T19:37:03.825Z,13.10
2018-10-16T19:39:31.978Z,13.10
2018-10-16T19:42:00.088Z,13.10
2018-10-16T19:44:28.198Z,13.00
2018-10-16T19:46:56.306Z,13.00
2018-10-16T19:49:24.391Z,13.00
2018-10-16T19:51:52.755Z,13.00
2018-10-16T19:54:20.823Z,13.00
2018-10-16T19:56:48.931Z,13.00
2018-10-16T19:59:17.034Z,12.90
2018-10-16T20:01:45.126Z,12.80
2018-10-16T20:04:13.224Z,12.80
2018-10-16T20:06:41.343Z,12.60
2018-10-16T20:09:10.763Z,12.60
2018-10-16T20:11:38.847Z,12.50
2018-10-16T20:14:06.991Z,12.40
2018-10-16T20:16:35.058Z,12.30
2018-10-16T20:19:03.202Z,12.20
2018-10-16T20:21:31.297Z,12.20
2018-10-16T20:23:59.376Z,12.20
2018-10-16T20:26:27.456Z,12.30
2018-10-16T20:28:55.562Z,12.40
2018-10-16T20:31:23.688Z,12.40
2018-10-16T20:33:51.886Z,12.40
2018-10-16T20:36:20.290Z,12.50
2018-10-16T20:38:48.330Z,12.40
2018-10-16T20:41:16.500Z,12.40
2018-10-16T20:43:44.601Z,12.50
2018-10-16T20:46:12.674Z,12.50
2018-10-16T20:48:40.774Z,12.50
2018-10-16T20:51:08.865Z,12.50
2018-10-16T20:53:36.949Z,12.50
2018-10-16T20:56:05.269Z,12.50
2018-10-16T20:58:33.366Z,12.50
2018-10-16T21:01:01.675Z,12.60
2018-10-16T21:03:29.742Z,12.60
2018-10-16T21:05:57.996Z,12.60
2018-10-16T21:08:25.939Z,12.60
2018-10-16T21:10:54.118Z,12.60
2018-10-16T21:13:22.227Z,12.60
2018-10-16T21:15:50.290Z,12.60
2018-10-16T21:18:18.410Z,12.60
2018-10-16T21:20:46.810Z,12.60
2018-10-16T21:23:14.970Z,12.60
2018-10-16T21:25:43.026Z,12.60
2018-10-16T21:28:11.147Z,12.60
2018-10-16T21:30:39.254Z,12.50
2018-10-16T21:33:07.362Z,12.50
2018-10-16T21:35:35.482Z,12.40
2018-10-16T21:38:03.593Z,12.40
2018-10-16T21:40:31.771Z,12.30
2018-10-16T21:43:00.002Z,12.30
2018-10-16T21:45:28.052Z,12.20
2018-10-16T21:47:56.169Z,12.20
2018-10-16T21:50:24.258Z,12.20
2018-10-16T21:52:52.345Z,12.20
2018-10-16T21:55:20.430Z,12.10
2018-10-16T21:57:48.517Z,12.10
2018-10-16T22:00:22.142Z,12.00
2018-10-16T22:02:50.817Z,11.90
2018-10-16T22:05:21.733Z,11.90
2018-10-16T22:07:51.256Z,11.80
2018-10-16T22:10:19.613Z,11.80
2018-10-16T22:12:48.307Z,11.70
2018-10-16T22:15:17.078Z,11.70
2018-10-16T22:17:45.202Z,11.60
2018-10-16T22:20:13.746Z,11.50
2018-10-16T22:22:42.257Z,11.40
2018-10-16T22:25:10.435Z,11.30
2018-10-16T22:27:38.469Z,11.20
2018-10-16T22:30:07.206Z,11.10
2018-10-16T22:32:35.296Z,11.10
2018-10-16T22:35:03.487Z,11.00
2018-10-16T22:37:31.505Z,11.10
2018-10-16T22:39:59.602Z,11.10
2018-10-16T22:42:27.722Z,11.00
2018-10-16T22:44:55.803Z,11.00
2018-10-16T22:47:23.878Z,11.00
2018-10-16T22:49:52.038Z,10.90
2018-10-16T22:52:20.142Z,10.80
2018-10-16T22:54:48.318Z,10.80
2018-10-16T22:57:16.437Z,10.80
2018-10-16T22:59:44.538Z,10.80
2018-10-16T23:02:12.698Z,10.70
2018-10-16T23:04:40.815Z,10.80
2018-10-16T23:07:08.946Z,10.70
2018-10-16T23:09:37.047Z,10.70
2018-10-16T23:12:05.672Z,10.70
2018-10-16T23:14:33.788Z,10.70
2018-10-16T23:17:02.183Z,10.60
2018-10-16T23:19:30.314Z,10.60
2018-10-16T23:21:58.422Z,10.50
2018-10-16T23:24:26.583Z,10.40
2018-10-16T23:26:54.725Z,10.30
2018-10-16T23:29:22.834Z,10.30
2018-10-16T23:31:50.958Z,10.40
2018-10-16T23:34:19.085Z,10.50
2018-10-16T23:36:47.205Z,10.50
2018-10-16T23:39:15.332Z,10.50
2018-10-16T23:41:43.886Z,10.30
2018-10-16T23:44:12.462Z,10.20
2018-10-16T23:46:40.564Z,10.10
2018-10-16T23:49:09.534Z,10.00
2018-10-16T23:51:37.674Z,9.90
2018-10-16T23:54:06.290Z,9.80
2018-10-16T23:56:34.405Z,9.70
2018-10-16T23:59:02.631Z,9.70
